createdAt,value
2019-04-22T00:01:05.802Z,3.40
2019-04-22T00:03:39.184Z,2.93
2019-04-22T00:06:19.573Z,3.60
2019-04-22T00:08:55.547Z,3.77
2019-04-22T00:11:30.343Z,3.37
2019-04-22T00:13:53.857Z,3.43
2019-04-22T00:16:27.530Z,3.03
2019-04-22T00:19:11.503Z,2.57
2019-04-22T00:21:19.479Z,2.90
2019-04-22T00:23:49.588Z,3.70
2019-04-22T00:26:19.008Z,3.00
2019-04-22T00:28:52.190Z,3.00
2019-04-22T00:31:21.916Z,3.50
2019-04-22T00:33:45.121Z,3.40
2019-04-22T00:36:23.632Z,3.13
2019-04-22T00:38:54.291Z,3.60
2019-04-22T00:41:26.709Z,2.63
2019-04-22T00:43:49.348Z,3.47
2019-04-22T00:46:22.648Z,3.00
2019-04-22T00:49:05.813Z,2.77
2019-04-22T00:51:22.593Z,3.17
2019-04-22T00:53:40.178Z,2.80
2019-04-22T00:56:10.630Z,3.00
2019-04-22T00:58:40.705Z,3.00
2019-04-22T01:01:17.493Z,3.47
2019-04-22T01:03:44.470Z,4.00
2019-04-22T01:06:13.098Z,3.73
2019-04-22T01:08:43.186Z,3.50
2019-04-22T01:11:13.551Z,3.30
2019-04-22T01:13:34.374Z,3.53
2019-04-22T01:16:09.362Z,3.33
2019-04-22T01:18:32.608Z,3.70
2019-04-22T01:23:28.071Z,3.30
2019-04-22T01:25:55.251Z,3.70
2019-04-22T01:28:19.709Z,4.03
2019-04-22T01:30:45.128Z,5.93
2019-04-22T01:33:13.983Z,5.80
2019-04-22T01:35:53.557Z,5.93
2019-04-22T01:38:18.983Z,5.27
2019-04-22T01:41:04.574Z,7.00
2019-04-22T01:43:33.501Z,6.60
2019-04-22T01:45:54.703Z,5.47
2019-04-22T01:48:26.965Z,8.07
2019-04-22T01:50:51.746Z,5.47
2019-04-22T01:53:24.474Z,4.03
2019-04-22T01:55:52.070Z,4.00
2019-04-22T01:58:21.824Z,3.70
2019-04-22T02:00:53.473Z,4.87
2019-04-22T02:03:17.677Z,3.60
2019-04-22T02:05:46.876Z,3.93
2019-04-22T02:08:25.517Z,3.23
2019-04-22T02:10:47.987Z,3.17
2019-04-22T02:13:16.644Z,4.15
2019-04-22T02:15:47.347Z,3.77
2019-04-22T02:18:17.899Z,4.45
2019-04-22T02:20:43.293Z,3.70
2019-04-22T02:23:40.285Z,3.65
2019-04-22T02:25:51.042Z,3.20
2019-04-22T02:28:28.337Z,3.65
2019-04-22T02:31:12.347Z,3.55
2019-04-22T02:33:41.003Z,3.83
2019-04-22T02:38:30.729Z,3.62
2019-04-22T02:40:56.211Z,3.65
2019-04-22T02:43:31.027Z,2.40
2019-04-22T02:45:55.649Z,2.65
2019-04-22T02:48:31.499Z,3.20
2019-04-22T02:50:43.866Z,3.22
2019-04-22T02:53:26.023Z,2.95
2019-04-22T02:55:41.111Z,3.30
2019-04-22T02:58:06.279Z,3.33
2019-04-22T03:00:44.343Z,4.30
2019-04-22T03:03:31.396Z,3.20
2019-04-22T03:05:48.903Z,3.30
2019-04-22T03:08:23.641Z,3.05
2019-04-22T03:13:09.037Z,2.67
2019-04-22T03:15:44.777Z,4.47
2019-04-22T03:20:33.928Z,3.55
2019-04-22T03:23:17.650Z,3.30
2019-04-22T03:27:51.867Z,3.20
2019-04-22T03:37:56.366Z,3.60
2019-04-22T03:52:53.159Z,4.00
2019-04-22T03:57:50.078Z,3.30
2019-04-22T04:00:25.049Z,4.25
2019-04-22T04:05:32.254Z,3.58
2019-04-22T04:10:30.124Z,3.72
2019-04-22T04:15:18.676Z,3.67
2019-04-22T04:17:44.194Z,3.77
2019-04-22T04:22:59.011Z,4.40
2019-04-22T04:32:51.309Z,3.65
2019-04-22T04:37:44.607Z,4.00
2019-04-22T04:42:42.314Z,3.95
2019-04-22T04:45:25.803Z,4.50
2019-04-22T04:47:42.138Z,3.52
2019-04-22T04:49:57.623Z,3.50
2019-04-22T04:55:10.311Z,3.08
2019-04-22T05:02:35.556Z,3.10
2019-04-22T05:05:06.366Z,3.55
2019-04-22T05:09:47.354Z,3.50
2019-04-22T05:12:29.156Z,3.35
2019-04-22T05:14:46.573Z,3.10
2019-04-22T05:17:18.672Z,3.10
2019-04-22T05:19:37.522Z,3.30
2019-04-22T05:24:37.410Z,3.83
2019-04-22T05:27:13.361Z,3.47
2019-04-22T05:29:56.586Z,3.60
2019-04-22T05:32:04.302Z,3.80
2019-04-22T05:34:37.979Z,3.12
2019-04-22T05:37:01.296Z,4.08
2019-04-22T05:39:28.468Z,3.98
2019-04-22T05:42:04.132Z,4.47
2019-04-22T05:44:32.925Z,3.95
2019-04-22T05:46:54.433Z,4.10
2019-04-22T05:49:23.855Z,4.33
2019-04-22T05:51:54.865Z,3.95
2019-04-22T05:54:27.437Z,4.25
2019-04-22T05:56:42.952Z,4.33
2019-04-22T05:59:28.897Z,4.60
2019-04-22T06:01:58.585Z,3.80
2019-04-22T06:04:37.300Z,3.45
2019-04-22T06:06:46.772Z,4.03
2019-04-22T06:11:36.163Z,4.37
2019-04-22T06:14:15.371Z,4.97
2019-04-22T06:16:50.414Z,4.70
2019-04-22T06:19:31.590Z,4.50
2019-04-22T06:21:50.129Z,4.75
2019-04-22T06:24:27.891Z,4.03
2019-04-22T06:26:54.016Z,4.30
2019-04-22T06:29:15.332Z,4.40
2019-04-22T06:32:05.473Z,4.00
2019-04-22T06:34:20.284Z,4.07
2019-04-22T06:36:45.012Z,5.17
2019-04-22T06:39:14.685Z,3.90
2019-04-22T06:41:40.239Z,4.00
2019-04-22T06:44:12.978Z,4.10
2019-04-22T06:46:45.779Z,4.10
2019-04-22T06:49:12.812Z,4.00
2019-04-22T06:51:37.708Z,3.73
2019-04-22T06:54:07.769Z,4.00
2019-04-22T06:56:38.800Z,4.10
2019-04-22T06:59:10.026Z,4.23
2019-04-22T07:01:35.758Z,4.00
2019-04-22T07:03:58.455Z,4.27
2019-04-22T07:06:35.427Z,3.60
2019-04-22T07:11:28.101Z,4.47
2019-04-22T07:14:01.700Z,3.93
2019-04-22T07:16:32.496Z,3.53
2019-04-22T07:18:56.853Z,3.37
2019-04-22T07:21:25.711Z,5.30
2019-04-22T07:26:20.309Z,3.97
2019-04-22T07:28:52.867Z,4.73
2019-04-22T07:31:20.528Z,4.67
2019-04-22T07:33:56.890Z,5.17
2019-04-22T07:36:30.550Z,4.43
2019-04-22T07:38:42.567Z,3.80
2019-04-22T07:41:14.641Z,4.80
2019-04-22T07:43:59.725Z,4.27
2019-04-22T07:46:13.503Z,3.90
2019-04-22T07:48:45.109Z,4.23
2019-04-22T07:51:13.318Z,3.83
2019-04-22T07:53:45.562Z,4.37
2019-04-22T07:56:16.745Z,3.17
2019-04-22T07:58:45.768Z,3.40
2019-04-22T08:01:13.994Z,3.67
2019-04-22T08:03:51.500Z,4.13
2019-04-22T08:06:12.322Z,4.00
2019-04-22T08:08:37.573Z,3.40
2019-04-22T08:11:21.641Z,3.77
2019-04-22T08:13:34.353Z,2.83
2019-04-22T08:16:04.480Z,2.97
2019-04-22T08:18:35.913Z,3.63
2019-04-22T08:23:31.698Z,3.37
2019-04-22T08:26:11.144Z,3.87
2019-04-22T08:28:32.019Z,3.50
2019-04-22T08:31:05.605Z,3.83
2019-04-22T08:33:29.546Z,3.80
2019-04-22T08:38:37.726Z,3.20
2019-04-22T08:41:20.881Z,3.00
2019-04-22T08:43:48.329Z,3.60
2019-04-22T08:46:06.120Z,3.60
2019-04-22T08:48:41.307Z,2.90
2019-04-22T08:51:00.360Z,3.30
2019-04-22T08:53:37.563Z,3.40
2019-04-22T08:56:17.156Z,2.97
2019-04-22T08:58:50.857Z,3.00
2019-04-22T09:01:05.077Z,3.17
2019-04-22T09:03:27.574Z,3.60
2019-04-22T09:08:27.901Z,2.80
2019-04-22T09:10:57.303Z,3.00
2019-04-22T09:13:30.212Z,3.47
2019-04-22T09:15:48.849Z,2.90
2019-04-22T09:18:26.593Z,3.57
2019-04-22T09:21:01.411Z,3.20
2019-04-22T09:23:28.398Z,2.93
2019-04-22T09:25:51.147Z,2.50
2019-04-22T09:28:16.905Z,2.73
2019-04-22T09:30:57.174Z,2.90
2019-04-22T09:38:25.709Z,2.80
2019-04-22T09:43:10.127Z,3.43
2019-04-22T09:45:43.252Z,3.33
2019-04-22T09:50:43.137Z,2.93
2019-04-22T09:53:08.708Z,3.00
2019-04-22T09:55:36.602Z,2.80
2019-04-22T09:58:02.716Z,3.20
2019-04-22T10:00:43.058Z,3.23
2019-04-22T10:03:11.544Z,3.50
2019-04-22T10:05:46.092Z,3.07
2019-04-22T10:08:08.138Z,2.03
2019-04-22T10:10:34.841Z,2.37
2019-04-22T10:13:10.467Z,2.80
2019-04-22T10:15:33.774Z,2.03
2019-04-22T10:18:02.927Z,2.90
2019-04-22T10:20:31.690Z,2.27
2019-04-22T10:23:03.733Z,3.00
2019-04-22T10:25:29.630Z,2.53
2019-04-22T10:28:10.415Z,2.90
2019-04-22T10:30:39.130Z,3.20
2019-04-22T10:33:03.059Z,2.80
2019-04-22T10:35:12.263Z,2.70
2019-04-22T10:37:36.366Z,3.20
2019-04-22T10:40:08.229Z,2.70
2019-04-22T10:42:40.990Z,2.87
2019-04-22T10:45:09.996Z,3.10
2019-04-22T10:47:38.282Z,2.60
2019-04-22T10:50:10.095Z,3.20
2019-04-22T10:52:37.730Z,3.50
2019-04-22T10:55:09.754Z,2.73
2019-04-22T10:57:37.217Z,2.53
2019-04-22T11:00:05.409Z,2.63
2019-04-22T11:02:32.624Z,2.33
2019-04-22T11:04:59.844Z,2.87
2019-04-22T11:07:38.687Z,3.43
2019-04-22T11:10:10.241Z,3.00
2019-04-22T11:12:28.290Z,2.80
2019-04-22T11:14:54.091Z,2.80
2019-04-22T11:17:21.773Z,2.60
2019-04-22T11:19:49.943Z,2.60
2019-04-22T11:22:22.979Z,3.23
2019-04-22T11:24:46.653Z,2.20
2019-04-22T11:27:14.920Z,4.00
2019-04-22T11:29:43.641Z,3.23
2019-04-22T11:32:12.787Z,3.27
2019-04-22T11:34:40.032Z,3.77
2019-04-22T11:37:07.252Z,3.17
2019-04-22T11:39:36.620Z,3.50
2019-04-22T11:42:04.494Z,4.60
2019-04-22T11:44:32.974Z,3.57
2019-04-22T11:47:01.575Z,2.97
2019-04-22T11:49:30.033Z,2.97
2019-04-22T11:51:58.829Z,3.53
2019-04-22T11:54:26.283Z,5.37
2019-04-22T11:56:54.718Z,3.57
2019-04-22T11:59:22.647Z,3.23
2019-04-22T12:01:51.014Z,4.27
2019-04-22T12:04:18.364Z,2.57
2019-04-22T12:06:46.180Z,3.63
2019-04-22T12:09:15.444Z,2.80
2019-04-22T12:11:44.377Z,2.40
2019-04-22T12:14:11.897Z,2.77
2019-04-22T12:16:39.475Z,2.73
2019-04-22T12:19:07.126Z,3.27
2019-04-22T12:21:35.219Z,3.00
2019-04-22T12:24:03.415Z,2.80
2019-04-22T12:26:32.358Z,2.40
2019-04-22T12:28:59.815Z,2.87
2019-04-22T12:31:27.376Z,3.17
2019-04-22T12:33:55.110Z,2.70
2019-04-22T12:36:22.717Z,2.80
2019-04-22T12:38:51.333Z,2.60
2019-04-22T12:41:19.742Z,2.60
2019-04-22T12:43:47.506Z,3.20
2019-04-22T12:46:16.224Z,2.60
2019-04-22T12:48:43.695Z,2.47
2019-04-22T12:51:11.101Z,2.70
2019-04-22T12:53:38.502Z,2.60
2019-04-22T12:56:06.945Z,2.70
2019-04-22T12:58:35.673Z,3.10
2019-04-22T13:01:03.386Z,2.30
2019-04-22T13:03:32.007Z,2.90
2019-04-22T13:05:59.496Z,3.00
2019-04-22T13:08:27.631Z,2.47
2019-04-22T13:11:00.921Z,2.90
2019-04-22T13:13:25.081Z,2.37
2019-04-22T13:15:53.072Z,2.80
2019-04-22T13:18:29.413Z,2.50
2019-04-22T13:20:50.601Z,2.73
2019-04-22T13:23:18.151Z,2.37
2019-04-22T13:25:47.054Z,3.00
2019-04-22T13:28:15.454Z,2.10
2019-04-22T13:30:44.251Z,2.43
2019-04-22T13:33:12.618Z,2.73
2019-04-22T13:35:41.494Z,3.30
2019-04-22T13:38:09.176Z,2.60
2019-04-22T13:40:37.175Z,2.20
2019-04-22T13:43:04.871Z,2.90
2019-04-22T13:45:32.238Z,2.70
2019-04-22T13:48:18.103Z,2.00
2019-04-22T13:50:56.399Z,2.80
2019-04-22T13:53:40.412Z,2.30
2019-04-22T13:55:54.835Z,2.57
2019-04-22T13:58:08.170Z,2.77
2019-04-22T14:00:31.028Z,2.00
2019-04-22T14:03:16.404Z,2.77
2019-04-22T14:05:48.832Z,2.37
2019-04-22T14:08:16.636Z,2.80
2019-04-22T14:10:45.079Z,2.67
2019-04-22T14:13:12.383Z,2.33
2019-04-22T14:15:40.245Z,2.63
2019-04-22T14:18:07.779Z,2.10
2019-04-22T14:20:36.611Z,2.53
2019-04-22T14:23:06.075Z,2.03
2019-04-22T14:25:34.586Z,2.33
2019-04-22T14:28:09.143Z,3.43
2019-04-22T14:30:31.377Z,2.83
2019-04-22T14:33:00.394Z,2.53
2019-04-22T14:35:29.070Z,2.27
2019-04-22T14:37:57.977Z,2.07
2019-04-22T14:40:28.068Z,2.20
2019-04-22T14:43:17.762Z,2.60
2019-04-22T14:45:58.828Z,3.00
2019-04-22T14:48:20.346Z,2.60
2019-04-22T14:50:47.003Z,2.77
2019-04-22T14:53:15.759Z,2.40
2019-04-22T14:55:25.010Z,2.90
2019-04-22T14:57:49.096Z,2.50
2019-04-22T15:00:18.109Z,2.30
2019-04-22T15:02:46.006Z,2.90
2019-04-22T15:05:14.350Z,2.17
2019-04-22T15:07:43.224Z,3.07
2019-04-22T15:10:10.732Z,2.43
2019-04-22T15:12:45.699Z,2.00
2019-04-22T15:15:29.246Z,2.43
2019-04-22T15:17:58.854Z,2.47
2019-04-22T15:20:41.542Z,2.70
2019-04-22T15:23:08.888Z,3.37
2019-04-22T15:25:36.738Z,2.90
2019-04-22T15:28:05.670Z,4.10
2019-04-22T15:30:33.199Z,2.70
2019-04-22T15:33:01.215Z,2.00
2019-04-22T15:35:29.161Z,2.17
2019-04-22T15:37:57.297Z,1.97
2019-04-22T15:40:24.911Z,2.40
2019-04-22T15:42:52.980Z,2.03
2019-04-22T15:45:21.961Z,2.40
2019-04-22T15:47:50.110Z,2.53
2019-04-22T15:50:18.990Z,5.53
2019-04-22T15:52:51.307Z,3.70
2019-04-22T15:55:16.456Z,2.20
2019-04-22T15:57:44.038Z,2.10
2019-04-22T16:00:25.099Z,11.53
2019-04-22T16:02:41.420Z,14.57
2019-04-22T16:05:10.576Z,3.23
2019-04-22T16:07:38.015Z,10.43
2019-04-22T16:10:06.263Z,2.60
2019-04-22T16:12:41.493Z,3.10
2019-04-22T16:15:03.632Z,2.97
2019-04-22T16:17:32.690Z,2.50
2019-04-22T16:20:01.572Z,2.30
2019-04-22T16:22:31.003Z,2.30
2019-04-22T16:25:03.163Z,2.53
2019-04-22T16:27:30.391Z,2.03
2019-04-22T16:29:59.184Z,2.40
2019-04-22T16:32:27.735Z,2.43
2019-04-22T16:34:56.501Z,2.70
2019-04-22T16:37:25.052Z,4.37
2019-04-22T16:39:52.458Z,4.40
2019-04-22T16:42:33.265Z,2.50
2019-04-22T16:44:49.445Z,2.60
2019-04-22T16:47:17.464Z,2.30
2019-04-22T16:49:45.715Z,5.97
2019-04-22T16:52:14.038Z,8.80
2019-04-22T16:54:42.104Z,7.60
2019-04-22T16:57:10.163Z,13.07
2019-04-22T16:59:37.646Z,16.23
2019-04-22T17:02:12.915Z,22.20
2019-04-22T17:04:43.005Z,11.53
2019-04-22T17:07:11.989Z,3.70
2019-04-22T17:09:39.479Z,9.20
2019-04-22T17:12:07.928Z,15.40
2019-04-22T17:14:43.519Z,6.23
2019-04-22T17:17:04.666Z,9.40
2019-04-22T17:19:33.306Z,2.70
2019-04-22T17:22:01.697Z,2.87
2019-04-22T17:24:30.014Z,2.60
2019-04-22T17:26:57.484Z,3.30
2019-04-22T17:29:26.214Z,3.70
2019-04-22T17:32:00.642Z,4.67
2019-04-22T17:34:23.429Z,5.10
2019-04-22T17:36:50.993Z,3.60
2019-04-22T17:39:32.969Z,2.43
2019-04-22T17:42:06.934Z,2.20
2019-04-22T17:44:46.520Z,2.80
2019-04-22T17:47:06.429Z,2.87
2019-04-22T17:49:50.599Z,4.03
2019-04-22T17:54:49.414Z,3.23
2019-04-22T17:57:17.495Z,2.80
2019-04-22T17:59:42.098Z,2.70
2019-04-22T18:02:11.504Z,2.70
2019-04-22T18:04:23.250Z,3.17
2019-04-22T18:07:20.369Z,3.50
2019-04-22T18:10:14.108Z,2.53
2019-04-22T18:12:12.255Z,2.73
2019-04-22T18:17:11.418Z,3.20
2019-04-22T18:19:35.138Z,3.83
2019-04-22T18:22:01.202Z,2.80
2019-04-22T18:24:24.282Z,3.60
2019-04-22T18:27:07.430Z,3.40
2019-04-22T18:29:34.528Z,2.40
2019-04-22T18:31:51.217Z,2.10
2019-04-22T18:34:25.583Z,2.60
2019-04-22T18:36:56.516Z,2.10
2019-04-22T18:39:27.302Z,2.87
2019-04-22T18:41:52.876Z,3.10
2019-04-22T18:44:27.028Z,2.50
2019-04-22T18:46:52.085Z,2.40
2019-04-22T18:49:23.185Z,3.33
2019-04-22T18:51:57.853Z,2.87
2019-04-22T18:54:30.851Z,2.73
2019-04-22T18:56:50.779Z,3.03
2019-04-22T18:59:15.837Z,2.63
2019-04-22T19:01:35.491Z,3.10
2019-04-22T19:04:11.562Z,2.80
2019-04-22T19:06:56.173Z,5.20
2019-04-22T19:09:33.564Z,3.00
2019-04-22T19:12:01.701Z,3.13
2019-04-22T19:14:42.160Z,3.10
2019-04-22T19:16:48.277Z,2.70
2019-04-22T19:19:30.468Z,2.87
2019-04-22T19:21:49.702Z,2.30
2019-04-22T19:24:17.372Z,2.30
2019-04-22T19:26:55.819Z,2.90
2019-04-22T19:29:17.202Z,2.13
2019-04-22T19:31:51.333Z,1.80
2019-04-22T19:34:12.365Z,1.77
2019-04-22T19:36:48.584Z,1.90
2019-04-22T19:39:07.851Z,2.03
2019-04-22T19:41:45.016Z,2.60
2019-04-22T19:44:10.351Z,1.90
2019-04-22T19:46:35.425Z,1.97
2019-04-22T19:49:12.037Z,1.77
2019-04-22T19:51:47.633Z,2.20
2019-04-22T19:54:01.448Z,2.20
2019-04-22T19:56:29.512Z,2.90
2019-04-22T19:59:03.626Z,2.60
2019-04-22T20:01:47.153Z,2.13
2019-04-22T20:04:28.261Z,1.80
2019-04-22T20:06:53.460Z,2.00
2019-04-22T20:09:37.997Z,1.80
2019-04-22T20:12:00.583Z,1.90
2019-04-22T20:14:27.067Z,2.23
2019-04-22T20:16:49.123Z,1.90
2019-04-22T20:19:38.340Z,2.70
2019-04-22T20:22:00.033Z,2.20
2019-04-22T20:24:12.977Z,2.20
2019-04-22T20:26:57.501Z,2.10
2019-04-22T20:29:31.007Z,1.83
2019-04-22T20:31:53.099Z,2.57
2019-04-22T20:34:23.964Z,2.10
2019-04-22T20:37:03.649Z,2.37
2019-04-22T20:39:27.056Z,2.57
2019-04-22T20:41:41.113Z,2.60
2019-04-22T20:44:24.681Z,2.67
2019-04-22T20:46:44.875Z,2.47
2019-04-22T20:49:19.502Z,2.10
2019-04-22T20:51:55.815Z,3.00
2019-04-22T20:54:17.702Z,2.53
2019-04-22T20:56:37.156Z,3.13
2019-04-22T20:59:14.348Z,3.47
2019-04-22T21:01:43.013Z,2.50
2019-04-22T21:04:05.213Z,2.93
2019-04-22T21:06:47.346Z,2.37
2019-04-22T21:09:22.388Z,2.50
2019-04-22T21:11:49.410Z,2.73
2019-04-22T21:14:19.663Z,2.50
2019-04-22T21:16:51.675Z,2.77
2019-04-22T21:19:29.636Z,3.33
2019-04-22T21:21:50.189Z,2.70
2019-04-22T21:24:18.583Z,1.90
2019-04-22T21:26:45.371Z,2.23
2019-04-22T21:29:14.725Z,2.70
2019-04-22T21:31:48.185Z,2.17
2019-04-22T21:34:16.166Z,3.13
2019-04-22T21:36:48.043Z,2.27
2019-04-22T21:39:12.491Z,2.80
2019-04-22T21:41:44.564Z,2.47
2019-04-22T21:44:14.328Z,2.37
2019-04-22T21:46:42.344Z,2.37
2019-04-22T21:49:16.720Z,2.50
2019-04-22T21:51:43.486Z,2.87
2019-04-22T21:54:15.784Z,2.50
2019-04-22T21:57:05.792Z,2.40
2019-04-22T21:59:22.293Z,2.37
2019-04-22T22:01:55.501Z,2.13
2019-04-22T22:04:17.530Z,2.50
2019-04-22T22:06:38.028Z,2.00
2019-04-22T22:09:15.531Z,2.17
2019-04-22T22:11:44.483Z,2.00
2019-04-22T22:14:11.742Z,2.40
2019-04-22T22:16:34.884Z,2.73
2019-04-22T22:19:11.738Z,2.57
2019-04-22T22:21:49.692Z,2.53
2019-04-22T22:24:08.954Z,3.00
2019-04-22T22:26:39.948Z,2.30
2019-04-22T22:29:15.660Z,2.67
2019-04-22T22:31:43.192Z,2.77
2019-04-22T22:34:09.710Z,2.23
2019-04-22T22:36:32.485Z,2.70
2019-04-22T22:39:00.664Z,2.27
2019-04-22T22:41:11.960Z,2.60
2019-04-22T22:43:43.603Z,2.90
2019-04-22T22:46:19.042Z,2.50
2019-04-22T22:54:55.730Z,2.60
2019-04-22T22:57:29.300Z,2.77
2019-04-22T22:59:54.193Z,2.80
2019-04-22T23:02:20.253Z,2.37
2019-04-22T23:04:45.985Z,2.33
2019-04-22T23:07:22.655Z,2.93
2019-04-22T23:09:44.186Z,2.30
2019-04-22T23:12:22.632Z,1.90
2019-04-22T23:14:42.819Z,2.77
2019-04-22T23:16:59.184Z,2.30
2019-04-22T23:19:19.877Z,3.00
2019-04-22T23:21:52.619Z,3.00
2019-04-22T23:24:39.983Z,2.97
2019-04-22T23:27:10.225Z,2.30
2019-04-22T23:29:49.912Z,2.23
2019-04-22T23:32:24.988Z,2.83
2019-04-22T23:35:10.430Z,2.60
2019-04-22T23:37:29.026Z,2.67
2019-04-22T23:40:09.955Z,2.00
2019-04-22T23:42:33.404Z,2.57
2019-04-22T23:45:02.121Z,3.37
2019-04-22T23:47:33.728Z,2.57
2019-04-22T23:50:09.641Z,2.00
2019-04-22T23:52:35.602Z,2.20
2019-04-22T23:55:13.306Z,2.87
2019-04-22T23:57:42.198Z,2.87
